createdAt,value
2019-06-07T00:00:47.644Z,16.78
2019-06-07T00:03:27.483Z,16.76
2019-06-07T00:05:49.705Z,16.74
2019-06-07T00:08:27.287Z,16.71
2019-06-07T00:10:51.286Z,16.67
2019-06-07T00:13:21.496Z,16.63
2019-06-07T00:15:52.027Z,16.59
2019-06-07T00:18:25.930Z,16.59
2019-06-07T00:20:54.259Z,16.57
2019-06-07T00:23:24.198Z,16.56
2019-06-07T00:25:54.151Z,16.55
2019-06-07T00:28:23.938Z,16.54
2019-06-07T00:30:54.201Z,16.54
2019-06-07T00:33:25.111Z,16.52
2019-06-07T00:35:56.456Z,16.50
2019-06-07T00:38:26.361Z,16.46
2019-06-07T00:40:56.298Z,16.44
2019-06-07T00:43:28.580Z,16.42
2019-06-07T00:45:58.263Z,16.41
2019-06-07T00:48:32.765Z,16.39
2019-06-07T00:51:00.551Z,16.36
2019-06-07T00:53:32.494Z,16.33
2019-06-07T00:56:02.446Z,16.32
2019-06-07T00:58:32.792Z,16.31
2019-06-07T01:01:03.008Z,16.30
2019-06-07T01:03:32.885Z,16.29
2019-06-07T01:06:02.822Z,16.29
2019-06-07T01:08:33.056Z,16.27
2019-06-07T01:11:02.898Z,16.25
2019-06-07T01:13:32.761Z,16.26
2019-06-07T01:16:02.705Z,16.25
2019-06-07T01:18:38.445Z,16.24
2019-06-07T01:21:04.896Z,16.25
2019-06-07T01:24:05.477Z,16.24
2019-06-07T01:26:06.398Z,16.22
2019-06-07T01:28:37.410Z,16.21
2019-06-07T01:31:07.354Z,16.21
2019-06-07T01:33:50.163Z,16.20
2019-06-07T01:36:09.397Z,16.18
2019-06-07T01:38:39.378Z,16.16
2019-06-07T01:41:09.601Z,16.12
2019-06-07T01:43:39.583Z,16.07
2019-06-07T01:46:09.516Z,16.00
2019-06-07T01:48:49.343Z,15.98
2019-06-07T01:51:11.587Z,15.95
2019-06-07T01:53:41.597Z,15.93
2019-06-07T01:56:11.390Z,15.91
2019-06-07T01:58:41.337Z,15.89
2019-06-07T02:01:11.132Z,15.87
2019-06-07T02:03:41.584Z,15.87
2019-06-07T02:06:11.516Z,15.88
2019-06-07T02:08:41.823Z,15.87
2019-06-07T02:11:11.747Z,15.86
2019-06-07T02:13:41.704Z,15.83
2019-06-07T02:16:12.025Z,15.84
2019-06-07T02:19:00.633Z,15.83
2019-06-07T02:21:14.467Z,15.81
2019-06-07T02:23:44.425Z,15.80
2019-06-07T02:26:14.233Z,15.77
2019-06-07T02:28:45.714Z,15.76
2019-06-07T02:31:16.062Z,15.74
2019-06-07T02:33:45.960Z,15.73
2019-06-07T02:36:15.839Z,15.71
2019-06-07T02:38:45.791Z,15.69
2019-06-07T02:41:16.083Z,15.66
2019-06-07T02:43:47.299Z,15.64
2019-06-07T02:46:34.356Z,15.61
2019-06-07T02:48:56.421Z,15.57
2019-06-07T02:51:32.228Z,15.55
2019-06-07T02:53:57.861Z,15.52
2019-06-07T02:56:42.077Z,15.49
2019-06-07T02:58:59.693Z,15.48
2019-06-07T03:01:35.904Z,15.46
2019-06-07T03:04:01.908Z,15.43
2019-06-07T03:06:38.735Z,15.44
2019-06-07T03:09:06.625Z,15.42
2019-06-07T03:11:39.169Z,15.44
2019-06-07T03:14:11.726Z,15.43
2019-06-07T03:16:51.412Z,15.42
2019-06-07T03:19:28.814Z,15.42
2019-06-07T03:21:59.742Z,15.41
2019-06-07T03:24:35.234Z,15.39
2019-06-07T03:29:36.963Z,15.39
2019-06-07T03:32:07.089Z,15.39
2019-06-07T03:34:41.242Z,15.37
2019-06-07T03:37:09.130Z,15.35
2019-06-07T03:39:40.992Z,15.34
2019-06-07T03:42:11.418Z,15.35
2019-06-07T03:44:41.824Z,15.34
2019-06-07T03:47:11.969Z,15.36
2019-06-07T03:49:42.753Z,15.35
2019-06-07T03:52:13.188Z,15.35
2019-06-07T03:54:43.424Z,15.36
2019-06-07T03:57:13.567Z,15.35
2019-06-07T03:59:43.732Z,15.37
2019-06-07T04:02:13.878Z,15.37
2019-06-07T04:04:44.058Z,15.39
2019-06-07T04:07:14.222Z,15.42
2019-06-07T04:09:44.747Z,15.45
2019-06-07T04:12:14.919Z,15.46
2019-06-07T04:14:45.004Z,15.49
2019-06-07T04:17:15.257Z,15.52
2019-06-07T04:19:45.344Z,15.54
2019-06-07T04:22:15.456Z,15.57
2019-06-07T04:24:45.591Z,15.59
2019-06-07T04:27:15.762Z,15.58
2019-06-07T04:30:05.680Z,15.59
2019-06-07T04:32:17.714Z,15.57
2019-06-07T04:34:47.901Z,15.57
2019-06-07T04:37:18.729Z,15.61
2019-06-07T04:39:50.432Z,15.64
2019-06-07T04:42:21.231Z,15.62
2019-06-07T04:44:53.387Z,15.64
2019-06-07T04:47:26.719Z,15.64
2019-06-07T04:49:57.951Z,15.65
2019-06-07T04:52:30.005Z,15.67
2019-06-07T04:55:00.890Z,15.67
2019-06-07T04:57:33.492Z,15.65
2019-06-07T05:00:33.330Z,15.66
2019-06-07T05:02:38.626Z,15.67
2019-06-07T05:05:07.206Z,15.67
2019-06-07T05:07:39.991Z,15.67
2019-06-07T05:10:09.300Z,15.69
2019-06-07T05:12:43.785Z,15.68
2019-06-07T05:15:11.363Z,15.68
2019-06-07T05:17:44.819Z,15.69
2019-06-07T05:20:13.630Z,15.71
2019-06-07T05:22:45.292Z,15.71
2019-06-07T05:25:15.655Z,15.69
2019-06-07T05:27:46.872Z,15.68
2019-06-07T05:31:02.122Z,15.67
2019-06-07T05:33:07.898Z,15.67
2019-06-07T05:35:41.736Z,15.67
2019-06-07T05:38:10.530Z,15.65
2019-06-07T05:40:43.730Z,15.66
2019-06-07T05:43:24.770Z,15.69
2019-06-07T05:45:54.997Z,15.70
2019-06-07T05:48:25.163Z,15.70
2019-06-07T05:50:57.467Z,15.72
2019-06-07T05:53:27.115Z,15.72
2019-06-07T05:55:57.268Z,15.76
2019-06-07T05:58:27.460Z,15.78
2019-06-07T06:01:41.766Z,15.82
2019-06-07T06:03:29.560Z,15.83
2019-06-07T06:05:59.663Z,15.86
2019-06-07T06:08:29.780Z,15.87
2019-06-07T06:11:00.089Z,15.88
2019-06-07T06:13:30.224Z,15.87
2019-06-07T06:16:02.407Z,15.91
2019-06-07T06:18:32.327Z,15.94
2019-06-07T06:21:16.074Z,15.95
2019-06-07T06:23:34.407Z,15.97
2019-06-07T06:26:04.658Z,16.01
2019-06-07T06:28:36.926Z,16.05
2019-06-07T06:31:06.650Z,16.05
2019-06-07T06:33:37.456Z,16.09
2019-06-07T06:36:07.792Z,16.13
2019-06-07T06:38:38.590Z,16.14
2019-06-07T06:41:15.973Z,16.18
2019-06-07T06:43:46.352Z,16.24
2019-06-07T06:46:13.573Z,16.27
2019-06-07T06:48:49.439Z,16.31
2019-06-07T06:51:15.454Z,16.34
2019-06-07T06:53:46.915Z,16.35
2019-06-07T06:56:18.116Z,16.39
2019-06-07T06:59:27.379Z,16.42
2019-06-07T07:01:20.221Z,16.45
2019-06-07T07:04:06.794Z,16.49
2019-06-07T07:06:26.562Z,16.52
2019-06-07T07:08:56.822Z,16.57
2019-06-07T07:11:26.941Z,16.59
2019-06-07T07:13:57.345Z,16.62
2019-06-07T07:16:27.508Z,16.68
2019-06-07T07:18:57.666Z,16.71
2019-06-07T07:21:27.801Z,16.72
2019-06-07T07:24:21.842Z,16.74
2019-06-07T07:26:29.783Z,16.75
2019-06-07T07:28:59.956Z,16.77
2019-06-07T07:31:30.317Z,16.81
2019-06-07T07:34:28.299Z,16.82
2019-06-07T07:36:39.170Z,16.86
2019-06-07T07:39:06.128Z,16.88
2019-06-07T07:41:36.717Z,16.94
2019-06-07T07:44:07.895Z,16.97
2019-06-07T07:46:38.798Z,16.96
2019-06-07T07:49:08.920Z,17.02
2019-06-07T07:51:39.074Z,17.06
2019-06-07T07:54:11.116Z,17.07
2019-06-07T07:56:41.104Z,17.12
2019-06-07T07:59:11.343Z,17.13
2019-06-07T08:01:41.520Z,17.16
2019-06-07T08:04:11.727Z,17.19
2019-06-07T08:06:41.832Z,17.22
2019-06-07T08:09:11.957Z,17.25
2019-06-07T08:11:42.143Z,17.29
2019-06-07T08:14:12.275Z,17.33
2019-06-07T08:16:42.399Z,17.39
2019-06-07T08:19:13.103Z,17.44
2019-06-07T08:21:43.286Z,17.52
2019-06-07T08:24:13.609Z,17.56
2019-06-07T08:26:43.670Z,17.60
2019-06-07T08:29:13.765Z,17.64
2019-06-07T08:31:43.920Z,17.68
2019-06-07T08:34:14.142Z,17.72
2019-06-07T08:36:44.340Z,17.75
2019-06-07T08:39:14.539Z,17.79
2019-06-07T08:41:59.341Z,17.84
2019-06-07T08:44:23.748Z,17.89
2019-06-07T08:46:56.636Z,17.94
2019-06-07T08:49:21.034Z,17.97
2019-06-07T08:51:52.570Z,18.01
2019-06-07T08:54:23.545Z,18.07
2019-06-07T08:57:16.784Z,18.10
2019-06-07T08:59:29.076Z,18.13
2019-06-07T09:02:03.649Z,18.15
2019-06-07T09:04:31.027Z,18.21
2019-06-07T09:07:10.443Z,18.23
2019-06-07T09:09:34.115Z,18.27
2019-06-07T09:12:08.069Z,18.30
2019-06-07T09:14:58.299Z,18.32
2019-06-07T09:17:12.093Z,18.35
2019-06-07T09:19:39.543Z,18.37
2019-06-07T09:22:11.478Z,18.40
2019-06-07T09:24:41.107Z,18.45
2019-06-07T09:27:11.326Z,18.51
2019-06-07T09:29:43.735Z,18.54
2019-06-07T09:32:18.109Z,18.58
2019-06-07T09:34:45.651Z,18.63
2019-06-07T09:38:03.484Z,18.69
2019-06-07T09:39:48.936Z,18.74
2019-06-07T09:42:18.864Z,18.77
2019-06-07T09:44:49.090Z,18.82
2019-06-07T09:47:31.650Z,18.86
2019-06-07T09:49:50.862Z,18.91
2019-06-07T09:52:20.793Z,18.95
2019-06-07T09:55:19.533Z,18.98
2019-06-07T09:57:22.472Z,19.02
2019-06-07T09:59:52.668Z,19.07
2019-06-07T10:02:22.606Z,19.09
2019-06-07T10:04:52.552Z,19.15
2019-06-07T10:07:31.421Z,19.18
2019-06-07T10:10:12.576Z,19.23
2019-06-07T10:12:26.138Z,19.27
2019-06-07T10:14:56.057Z,19.32
2019-06-07T10:17:26.008Z,19.41
2019-06-07T10:19:56.142Z,19.46
2019-06-07T10:22:26.083Z,19.53
2019-06-07T10:24:56.030Z,19.60
2019-06-07T10:27:25.965Z,19.68
2019-06-07T10:29:56.205Z,19.74
2019-06-07T10:32:26.147Z,19.85
2019-06-07T10:34:56.190Z,19.93
2019-06-07T10:37:26.201Z,20.00
2019-06-07T10:39:56.093Z,20.06
2019-06-07T10:42:26.009Z,20.13
2019-06-07T10:44:55.875Z,20.27
2019-06-07T10:47:25.855Z,20.40
2019-06-07T10:49:55.652Z,20.53
2019-06-07T10:52:25.673Z,20.70
2019-06-07T10:54:55.472Z,20.94
2019-06-07T10:57:25.754Z,21.20
2019-06-07T10:59:55.624Z,21.37
2019-06-07T11:02:25.778Z,21.59
2019-06-07T11:04:56.845Z,21.80
2019-06-07T11:07:26.909Z,22.20
2019-06-07T11:10:07.355Z,22.20
2019-06-07T11:12:28.488Z,22.40
2019-06-07T11:14:58.713Z,22.60
2019-06-07T11:17:28.511Z,22.77
2019-06-07T11:19:58.441Z,22.87
2019-06-07T11:22:28.600Z,22.99
2019-06-07T11:24:58.525Z,23.14
2019-06-07T11:27:28.307Z,23.31
2019-06-07T11:29:58.248Z,23.49
2019-06-07T11:32:28.969Z,23.67
2019-06-07T11:34:58.904Z,23.83
2019-06-07T11:37:28.830Z,23.96
2019-06-07T11:39:58.683Z,24.10
2019-06-07T11:42:28.520Z,24.23
2019-06-07T11:44:58.390Z,24.43
2019-06-07T11:47:28.452Z,24.57
2019-06-07T11:49:58.307Z,24.73
2019-06-07T11:52:28.521Z,24.88
2019-06-07T11:54:58.513Z,24.99
2019-06-07T11:57:28.633Z,25.13
2019-06-07T11:59:58.487Z,25.26
2019-06-07T12:02:28.545Z,25.40
2019-06-07T12:04:58.408Z,25.51
2019-06-07T12:07:28.906Z,25.67
2019-06-07T12:09:58.894Z,25.67
2019-06-07T12:12:28.883Z,25.69
2019-06-07T12:14:58.822Z,25.80
2019-06-07T12:17:29.073Z,26.01
2019-06-07T12:19:59.060Z,26.12
2019-06-07T12:22:28.966Z,26.22
2019-06-07T12:24:59.180Z,26.38
2019-06-07T12:27:29.112Z,26.51
2019-06-07T12:29:59.045Z,26.55
2019-06-07T12:32:28.901Z,26.63
2019-06-07T12:34:59.076Z,26.76
2019-06-07T12:37:43.130Z,26.91
2019-06-07T12:40:00.698Z,27.04
2019-06-07T12:42:30.545Z,27.14
2019-06-07T12:45:00.399Z,27.24
2019-06-07T12:47:31.375Z,27.37
2019-06-07T12:50:01.170Z,27.47
2019-06-07T12:52:31.151Z,27.56
2019-06-07T12:55:00.974Z,27.66
2019-06-07T12:57:30.972Z,27.71
2019-06-07T13:00:00.895Z,27.73
2019-06-07T13:02:30.885Z,27.75
2019-06-07T13:05:04.562Z,27.78
2019-06-07T13:07:32.410Z,27.84
2019-06-07T13:10:02.349Z,27.88
2019-06-07T13:12:32.412Z,27.94
2019-06-07T13:17:51.326Z,27.93
2019-06-07T13:20:24.606Z,27.87
2019-06-07T13:22:54.798Z,27.72
2019-06-07T13:25:41.122Z,27.73
2019-06-07T13:27:56.587Z,27.83
2019-06-07T13:30:26.516Z,27.98
2019-06-07T13:32:56.369Z,28.13
2019-06-07T13:35:29.345Z,28.22
2019-06-07T13:37:59.728Z,28.33
2019-06-07T13:40:30.284Z,28.32
2019-06-07T13:43:00.153Z,28.32
2019-06-07T13:45:31.376Z,28.18
2019-06-07T13:48:01.392Z,28.04
2019-06-07T13:50:31.647Z,28.03
2019-06-07T13:53:01.634Z,28.15
2019-06-07T13:55:31.574Z,28.28
2019-06-07T13:58:01.575Z,28.40
2019-06-07T14:00:31.539Z,28.52
2019-06-07T14:03:02.536Z,28.54
2019-06-07T14:05:32.477Z,28.61
2019-06-07T14:08:06.924Z,28.68
2019-06-07T14:10:38.462Z,28.68
2019-06-07T14:16:00.488Z,28.89
2019-06-07T14:18:30.665Z,29.02
2019-06-07T14:21:00.665Z,29.12
2019-06-07T14:23:46.190Z,29.19
2019-06-07T14:26:02.058Z,29.29
2019-06-07T14:28:34.167Z,29.35
2019-06-07T14:31:03.660Z,29.41
2019-06-07T14:33:33.907Z,29.46
2019-06-07T14:36:04.066Z,29.48
2019-06-07T14:38:37.511Z,29.55
2019-06-07T14:41:05.664Z,29.51
2019-06-07T14:43:54.530Z,29.30
2019-06-07T14:46:25.605Z,29.25
2019-06-07T14:49:14.882Z,29.09
2019-06-07T14:51:45.870Z,28.70
2019-06-07T14:54:17.960Z,28.31
2019-06-07T14:56:52.829Z,28.03
2019-06-07T14:59:23.215Z,27.78
2019-06-07T15:01:53.241Z,27.55
2019-06-07T15:04:24.338Z,27.28
2019-06-07T15:06:54.142Z,27.04
2019-06-07T15:09:24.102Z,26.84
2019-06-07T15:11:53.973Z,26.70
2019-06-07T15:14:23.865Z,26.60
2019-06-07T15:16:54.185Z,26.52
2019-06-07T15:19:24.417Z,26.42
2019-06-07T15:21:54.676Z,26.31
2019-06-07T15:24:24.457Z,26.20
2019-06-07T15:26:54.409Z,25.96
2019-06-07T15:29:24.835Z,25.75
2019-06-07T15:31:55.030Z,25.61
2019-06-07T15:34:24.956Z,25.44
2019-06-07T15:36:54.912Z,25.17
2019-06-07T15:39:24.812Z,24.87
2019-06-07T15:41:55.327Z,24.62
2019-06-07T15:44:25.444Z,23.95
2019-06-07T15:46:56.024Z,23.35
2019-06-07T15:49:26.506Z,22.67
2019-06-07T15:51:56.787Z,22.03
2019-06-07T15:54:26.562Z,21.63
2019-06-07T15:56:56.424Z,21.21
2019-06-07T15:59:26.269Z,21.09
2019-06-07T16:01:56.303Z,20.98
2019-06-07T16:04:26.195Z,20.90
2019-06-07T16:06:56.059Z,20.81
2019-06-07T16:09:25.983Z,20.72
2019-06-07T16:11:56.218Z,20.67
2019-06-07T16:14:26.416Z,20.52
2019-06-07T16:16:56.276Z,20.34
2019-06-07T16:19:26.208Z,20.14
2019-06-07T16:21:56.099Z,19.74
2019-06-07T16:24:26.036Z,19.59
2019-06-07T16:26:55.985Z,19.62
2019-06-07T16:29:25.922Z,19.69
2019-06-07T16:31:57.197Z,19.81
2019-06-07T16:34:27.383Z,19.97
2019-06-07T16:36:57.337Z,19.98
2019-06-07T16:39:27.137Z,19.98
2019-06-07T16:41:57.017Z,20.07
2019-06-07T16:44:26.806Z,19.92
2019-06-07T16:46:57.091Z,19.75
2019-06-07T16:49:28.345Z,19.70
2019-06-07T16:51:58.204Z,19.61
2019-06-07T16:54:28.162Z,19.53
2019-06-07T16:56:58.026Z,19.55
2019-06-07T16:59:27.806Z,19.49
2019-06-07T17:01:57.677Z,19.43
2019-06-07T17:04:27.879Z,19.37
2019-06-07T17:06:58.151Z,19.32
2019-06-07T17:09:28.057Z,19.27
2019-06-07T17:11:58.232Z,19.26
2019-06-07T17:14:28.896Z,19.30
2019-06-07T17:16:58.859Z,19.28
2019-06-07T17:19:28.743Z,19.31
2019-06-07T17:21:58.599Z,19.28
2019-06-07T17:24:28.508Z,19.25
2019-06-07T17:26:58.613Z,19.19
2019-06-07T17:29:28.842Z,19.20
2019-06-07T17:31:58.763Z,19.16
2019-06-07T17:34:28.715Z,19.12
2019-06-07T17:36:58.648Z,19.08
2019-06-07T17:39:28.902Z,19.15
2019-06-07T17:42:01.968Z,19.17
2019-06-07T17:44:30.661Z,19.25
2019-06-07T17:47:00.453Z,19.33
2019-06-07T17:49:30.663Z,19.37
2019-06-07T17:52:00.610Z,19.46
2019-06-07T17:54:30.496Z,19.55
2019-06-07T17:57:00.420Z,19.50
2019-06-07T17:59:30.299Z,19.47
2019-06-07T18:02:13.923Z,19.55
2019-06-07T18:04:32.114Z,19.61
2019-06-07T18:07:02.045Z,19.65
2019-06-07T18:09:32.178Z,19.65
2019-06-07T18:12:02.060Z,19.68
2019-06-07T18:14:32.027Z,19.62
2019-06-07T18:17:01.885Z,19.50
2019-06-07T18:19:31.746Z,19.55
2019-06-07T18:22:01.645Z,19.61
2019-06-07T18:24:31.501Z,19.61
2019-06-07T18:27:02.509Z,19.68
2019-06-07T18:29:32.292Z,19.70
2019-06-07T18:32:02.251Z,19.73
2019-06-07T18:34:32.120Z,19.73
2019-06-07T18:37:02.002Z,19.75
2019-06-07T18:39:31.964Z,19.79
2019-06-07T18:42:02.178Z,19.77
2019-06-07T18:44:32.042Z,19.77
2019-06-07T18:47:02.000Z,19.77
2019-06-07T18:49:31.848Z,19.75
2019-06-07T18:52:21.035Z,19.77
2019-06-07T18:54:51.329Z,19.75
2019-06-07T18:57:21.195Z,19.76
2019-06-07T18:59:52.305Z,19.72
2019-06-07T19:02:22.201Z,19.69
2019-06-07T19:04:52.288Z,19.66
2019-06-07T19:07:23.934Z,19.68
2019-06-07T19:09:54.995Z,19.70
2019-06-07T19:12:25.316Z,19.68
2019-06-07T19:14:55.549Z,19.68
2019-06-07T19:17:25.536Z,19.58
2019-06-07T19:19:56.185Z,19.53
2019-06-07T19:22:26.550Z,19.56
2019-06-07T19:24:56.912Z,19.46
2019-06-07T19:27:27.467Z,19.42
2019-06-07T19:29:57.403Z,19.34
2019-06-07T19:32:27.278Z,19.37
2019-06-07T19:34:57.473Z,19.37
2019-06-07T19:37:27.460Z,19.35
2019-06-07T19:39:58.070Z,19.39
2019-06-07T19:42:28.065Z,19.40
2019-06-07T19:45:16.810Z,19.40
2019-06-07T19:47:29.670Z,19.31
2019-06-07T19:50:00.821Z,19.27
2019-06-07T19:52:31.061Z,19.23
2019-06-07T19:55:05.782Z,19.30
2019-06-07T19:57:32.713Z,19.32
2019-06-07T20:00:12.845Z,19.35
2019-06-07T20:02:34.919Z,19.37
2019-06-07T20:05:06.941Z,19.41
2019-06-07T20:07:37.035Z,19.40
2019-06-07T20:10:07.593Z,19.38
2019-06-07T20:12:37.541Z,19.38
2019-06-07T20:15:27.279Z,19.39
2019-06-07T20:17:40.158Z,19.39
2019-06-07T20:20:10.635Z,19.29
2019-06-07T20:22:40.577Z,19.24
2019-06-07T20:25:11.099Z,19.26
2019-06-07T20:27:41.035Z,19.22
2019-06-07T20:30:14.111Z,19.22
2019-06-07T20:32:43.970Z,19.23
2019-06-07T20:35:13.930Z,19.24
2019-06-07T20:37:43.900Z,19.19
2019-06-07T20:40:23.629Z,19.16
2019-06-07T20:42:45.823Z,19.18
2019-06-07T20:45:30.071Z,19.19
2019-06-07T20:47:48.677Z,19.14
2019-06-07T20:50:18.968Z,19.15
2019-06-07T20:52:48.901Z,19.10
2019-06-07T20:55:18.852Z,19.09
2019-06-07T20:57:49.708Z,19.03
2019-06-07T21:00:21.916Z,19.04
2019-06-07T21:02:51.544Z,19.03
2019-06-07T21:05:21.430Z,19.03
2019-06-07T21:07:51.342Z,18.93
2019-06-07T21:10:21.270Z,18.96
2019-06-07T21:12:51.222Z,18.91
2019-06-07T21:15:21.138Z,18.90
2019-06-07T21:17:50.922Z,18.91
2019-06-07T21:20:20.927Z,18.88
2019-06-07T21:22:51.029Z,18.87
2019-06-07T21:25:21.028Z,18.88
2019-06-07T21:27:51.157Z,18.82
2019-06-07T21:30:21.145Z,18.83
2019-06-07T21:32:51.044Z,18.73
2019-06-07T21:35:20.995Z,18.73
2019-06-07T21:37:51.009Z,18.73
2019-06-07T21:40:20.983Z,18.73
2019-06-07T21:42:50.938Z,18.79
2019-06-07T21:45:20.881Z,18.76
2019-06-07T21:47:51.865Z,18.75
2019-06-07T21:50:21.856Z,18.72
2019-06-07T21:52:52.066Z,18.66
2019-06-07T21:55:22.333Z,18.65
2019-06-07T21:57:52.199Z,18.61
2019-06-07T22:00:28.640Z,18.63
2019-06-07T22:03:00.114Z,18.61
2019-06-07T22:05:30.055Z,18.60
2019-06-07T22:08:00.012Z,18.60
2019-06-07T22:10:29.893Z,18.62
2019-06-07T22:12:59.765Z,18.59
2019-06-07T22:15:35.311Z,18.63
2019-06-07T22:18:01.581Z,18.63
2019-06-07T22:20:31.560Z,18.64
2019-06-07T22:23:01.763Z,18.64
2019-06-07T22:25:31.652Z,18.61
2019-06-07T22:28:01.573Z,18.54
2019-06-07T22:30:31.509Z,18.45
2019-06-07T22:33:01.639Z,18.38
2019-06-07T22:35:31.876Z,18.39
2019-06-07T22:38:01.883Z,18.34
2019-06-07T22:40:31.758Z,18.35
2019-06-07T22:43:01.649Z,18.32
2019-06-07T22:45:31.588Z,18.34
2019-06-07T22:48:01.445Z,18.31
2019-06-07T22:50:31.704Z,18.35
2019-06-07T22:53:01.666Z,18.36
2019-06-07T22:55:31.882Z,18.39
2019-06-07T22:58:02.009Z,18.40
2019-06-07T23:00:33.245Z,18.41
2019-06-07T23:03:03.201Z,18.47
2019-06-07T23:05:33.205Z,18.44
2019-06-07T23:08:03.239Z,18.45
2019-06-07T23:10:33.226Z,18.47
2019-06-07T23:13:03.473Z,18.52
2019-06-07T23:15:33.550Z,18.51
2019-06-07T23:18:03.498Z,18.53
2019-06-07T23:20:33.442Z,18.52
2019-06-07T23:23:03.306Z,18.55
2019-06-07T23:25:33.182Z,18.52
2019-06-07T23:28:03.074Z,18.47
2019-06-07T23:30:32.993Z,18.47
2019-06-07T23:33:03.166Z,18.42
2019-06-07T23:35:33.466Z,18.39
2019-06-07T23:38:03.380Z,18.37
2019-06-07T23:40:33.346Z,18.33
2019-06-07T23:43:03.358Z,18.33
2019-06-07T23:45:33.320Z,18.32
2019-06-07T23:48:03.176Z,18.27
2019-06-07T23:50:32.969Z,18.31
2019-06-07T23:53:02.816Z,18.24
2019-06-07T23:55:32.700Z,18.22
2019-06-07T23:58:02.928Z,18.18
